Alto Santo, Brazil
Current Conditions -  °F | °C
As of 3:00 PM on Thursday 30 Oct 2014 (Local Time) from SBFZ Reporting Station
Scattered Clouds Scattered Clouds  
Wind Chill: 84°   Ceiling: Unl
Heat Index: 86°   Visibility: 6mi
Dew Point: 66°   Wind: 23mph
Humidity: 55%   Direction: 110°ESE
Pressure: 29.83"   Gusts: NA
Location:  5.52°S, 38.27°W
Report Text: SBFZ 301800Z 11020KT 9999 SCT025 29/19 Q1010
Loading
Personal Weather Stations






























Interactive Weather Map
Tropical Storm Tracking
New forecast layout! Learn more

10-Day Weather Forecast

Advertisements
Track Severe Weather on mobile